Time;durP1;ratioP1;P1;durP2;ratioP2;P2;SDS_P1;SDS_P2;PMS_P1;PMS_P2;Temp;Humidity;BMP_temperature;BMP_pressure;BME280_temperature;BME280_humidity;BME280_pressure;Samples;Min_cycle;Max_cycle;Signal;HPM_P1;HPM_P2
2021/11/10 00:02:12;;;;;;;8.57;3.85;;;;;;;11.22;78.25;101444.09;5061876;28;20029;-80
2021/11/10 00:04:39;;;;;;;13.27;3.45;;;;;;;11.22;78.24;101450.47;5042407;28;20040;-80
2021/11/10 00:07:07;;;;;;;10.50;2.50;;;;;;;11.24;78.28;101467.56;5060698;28;20041;-80
2021/11/10 00:09:33;;;;;;;11.60;2.88;;;;;;;11.23;78.00;101462.34;5060244;28;20132;-81
2021/11/10 00:12:01;;;;;;;15.38;3.90;;;;;;;11.22;78.26;101466.28;5040900;28;20059;-80
2021/11/10 00:14:28;;;;;;;19.58;4.07;;;;;;;11.21;77.98;101467.41;5059975;28;20072;-80
2021/11/10 00:16:56;;;;;;;5.97;2.35;;;;;;;11.19;78.28;101462.19;5059658;28;20098;-81
2021/11/10 00:19:24;;;;;;;19.67;2.88;;;;;;;11.19;78.29;101473.28;5024598;28;20106;-80
2021/11/10 00:21:51;;;;;;;7.78;1.95;;;;;;;11.18;78.36;101466.09;5056100;28;20115;-79
2021/11/10 00:24:18;;;;;;;11.13;2.70;;;;;;;11.18;78.26;101473.59;5055016;28;20068;-80
2021/11/10 00:26:45;;;;;;;11.85;2.33;;;;;;;11.16;78.29;101471.19;5050296;28;20119;-80
2021/11/10 00:29:12;;;;;;;25.60;3.40;;;;;;;11.17;78.46;101463.69;5052681;28;20143;-80
2021/11/10 00:31:39;;;;;;;20.15;2.53;;;;;;;11.17;78.49;101461.72;5055317;28;20124;-80
2021/11/10 00:34:06;;;;;;;14.80;2.55;;;;;;;11.16;78.39;101471.19;5050518;28;20044;-80
2021/11/10 00:36:32;;;;;;;9.50;2.25;;;;;;;11.17;78.68;101469.22;5036966;28;20076;-80
2021/11/10 00:38:59;;;;;;;7.18;2.60;;;;;;;11.14;78.73;101469.88;5035322;28;20051;-80
2021/11/10 00:41:26;;;;;;;25.52;5.90;;;;;;;11.13;78.77;101466.28;5053641;28;20041;-81
2021/11/10 00:43:53;;;;;;;17.92;3.85;;;;;;;11.11;78.68;101465.00;5050966;28;20070;-80
2021/11/10 00:46:20;;;;;;;12.07;2.40;;;;;;;11.08;78.96;101480.34;5036709;28;20044;-80
2021/11/10 00:48:47;;;;;;;16.30;2.75;;;;;;;11.07;78.78;101475.91;5037708;28;20109;-80
2021/11/10 00:51:14;;;;;;;14.88;3.22;;;;;;;11.06;78.84;101479.84;5053200;28;20068;-80
2021/11/10 00:53:40;;;;;;;8.88;3.28;;;;;;;11.05;78.96;101475.44;5052998;28;20083;-80
2021/11/10 00:56:07;;;;;;;15.30;4.57;;;;;;;11.03;79.23;101474.97;5034719;28;20139;-80
2021/11/10 00:58:34;;;;;;;18.38;3.15;;;;;;;11.06;78.98;101479.03;5053560;28;20029;-80
2021/11/10 01:01:01;;;;;;;13.45;2.65;;;;;;;11.05;79.24;101486.53;5057530;28;20048;-80
2021/11/10 01:03:28;;;;;;;37.60;4.10;;;;;;;11.05;79.26;101482.94;5036143;28;20044;-79
2021/11/10 01:05:56;;;;;;;15.48;2.80;;;;;;;11.07;79.40;101484.22;5050837;28;20072;-80
2021/11/10 01:08:24;;;;;;;11.48;1.83;;;;;;;11.07;79.08;101487.00;5029904;28;20520;-80
2021/11/10 01:10:51;;;;;;;15.30;2.78;;;;;;;11.08;79.23;101482.28;5033849;28;20102;-80
2021/11/10 01:13:20;;;;;;;13.93;2.70;;;;;;;11.13;79.23;101490.41;5052534;28;20091;-81
2021/11/10 01:15:47;;;;;;;12.93;2.50;;;;;;;11.10;79.65;101480.81;5037194;28;20099;-80
2021/11/10 01:18:14;;;;;;;8.18;2.58;;;;;;;11.09;79.56;101483.91;5054574;28;20113;-80
2021/11/10 01:20:42;;;;;;;17.08;2.92;;;;;;;11.09;79.50;101484.75;5057269;28;20045;-80
2021/11/10 01:23:10;;;;;;;11.05;2.83;;;;;;;11.10;79.50;101488.31;5034675;28;20481;-80
2021/11/10 01:25:38;;;;;;;12.25;4.45;;;;;;;11.11;79.33;101487.16;5054356;28;20040;-80
2021/11/10 01:28:07;;;;;;;7.50;2.97;;;;;;;11.08;79.78;101490.59;5055378;28;20036;-80
2021/11/10 01:30:35;;;;;;;9.40;2.25;;;;;;;11.09;79.80;101486.69;5054561;28;20127;-80
2021/11/10 01:33:01;;;;;;;10.55;3.13;;;;;;;11.09;79.72;101484.75;5038498;28;20045;-80
2021/11/10 01:35:28;;;;;;;7.18;2.35;;;;;;;11.09;79.99;101484.75;5056188;28;20060;-79
2021/11/10 01:37:58;;;;;;;13.48;2.67;;;;;;;11.11;79.98;101489.94;5056635;28;20111;-80
2021/11/10 01:40:24;;;;;;;15.93;3.47;;;;;;;11.09;79.89;101487.50;5039844;28;20131;-81
2021/11/10 01:42:51;;;;;;;11.00;4.65;;;;;;;11.07;80.02;101492.53;5057063;28;20061;-80
2021/11/10 01:45:19;;;;;;;13.32;2.95;;;;;;;11.07;80.12;101497.31;5055497;28;20048;-80
2021/11/10 01:47:46;;;;;;;12.00;2.92;;;;;;;11.06;79.95;101499.25;5034502;28;20073;-81
2021/11/10 01:50:16;;;;;;;12.82;4.90;;;;;;;11.05;80.22;101505.09;5051632;28;20041;-80
2021/11/10 01:52:44;;;;;;;5.30;2.50;;;;;;;11.02;80.28;101488.00;5038712;28;20041;-80
2021/11/10 01:55:12;;;;;;;9.18;3.50;;;;;;;11.02;80.39;101495.50;5054986;28;20132;-80
2021/11/10 01:57:39;;;;;;;9.90;2.95;;;;;;;11.02;80.45;101506.59;5053364;28;20128;-80
2021/11/10 02:00:10;;;;;;;10.13;2.30;;;;;;;11.01;80.39;101502.19;5052819;28;20125;-80
2021/11/10 02:02:40;;;;;;;12.80;3.20;;;;;;;10.99;80.51;101504.47;5053923;28;20071;-81
2021/11/10 02:05:13;;;;;;;10.63;2.50;;;;;;;10.99;80.46;101510.00;5053294;28;20041;-80
2021/11/10 02:07:40;;;;;;;9.07;2.50;;;;;;;10.97;80.46;101517.84;5052278;28;20060;-80
2021/11/10 02:10:09;;;;;;;15.20;3.47;;;;;;;10.96;80.71;101519.78;5055533;28;20051;-80
2021/11/10 02:12:37;;;;;;;6.78;2.35;;;;;;;10.98;80.78;101533.34;5053905;28;20597;-80
2021/11/10 02:15:10;;;;;;;14.82;2.42;;;;;;;10.98;80.91;101528.63;5051859;28;20079;-80
2021/11/10 02:17:37;;;;;;;11.45;2.53;;;;;;;10.99;80.90;101526.63;5034752;28;20076;-80
2021/11/10 02:20:07;;;;;;;13.25;4.93;;;;;;;11.00;81.01;101531.03;5055102;28;20072;-80
2021/11/10 02:22:35;;;;;;;10.90;3.05;;;;;;;10.97;81.14;101540.81;5035711;28;21048;-80
2021/11/10 02:25:04;;;;;;;16.92;4.07;;;;;;;10.93;81.19;101542.59;5054400;28;20120;-80
2021/11/10 02:27:35;;;;;;;9.60;3.17;;;;;;;10.97;81.12;101540.81;5035371;28;20060;-79
2021/11/10 02:30:07;;;;;;;10.20;3.20;;;;;;;10.98;81.30;101544.41;5055763;28;21238;-80
2021/11/10 02:32:34;;;;;;;;;;;;;;;10.95;81.46;101540.34;5055093;28;20086;-79
2021/11/10 02:35:02;;;;;;;8.07;3.17;;;;;;;10.99;81.18;101540.47;5039008;28;20015;-80
2021/11/10 02:37:28;;;;;;;15.30;4.93;;;;;;;10.97;81.40;101538.06;5035859;28;20119;-80
2021/11/10 02:39:55;;;;;;;10.05;3.47;;;;;;;10.98;81.21;101534.16;5055645;28;20071;-80
2021/11/10 02:42:23;;;;;;;12.70;3.22;;;;;;;11.00;81.06;101536.59;5055390;28;20060;-80
2021/11/10 02:44:52;;;;;;;11.07;3.63;;;;;;;10.97;81.28;101526.16;5053803;28;20080;-80
2021/11/10 02:47:20;;;;;;;13.65;3.92;;;;;;;10.92;81.35;101534.63;5032947;28;20036;-80
2021/11/10 02:49:47;;;;;;;10.23;3.50;;;;;;;10.91;81.27;101535.78;5035723;28;20051;-80
2021/11/10 02:52:18;;;;;;;10.90;3.30;;;;;;;10.88;81.25;101530.91;5037788;28;20067;-80
2021/11/10 02:54:48;;;;;;;10.27;3.17;;;;;;;10.84;81.48;101530.75;5052295;28;20037;-79
2021/11/10 02:57:15;;;;;;;11.10;3.50;;;;;;;10.82;81.58;101529.44;5052859;28;20096;-80
2021/11/10 02:59:42;;;;;;;11.30;3.53;;;;;;;10.80;81.46;101524.22;5049281;28;20132;-80
2021/11/10 03:02:10;;;;;;;14.32;3.33;;;;;;;10.80;81.40;101526.97;5016428;28;20037;-80
2021/11/10 03:04:44;;;;;;;9.82;3.40;;;;;;;10.72;81.65;101513.16;5052175;28;20535;-80
2021/11/10 03:07:13;;;;;;;12.77;3.28;;;;;;;10.73;81.48;101512.00;5052607;28;20131;-80
2021/11/10 03:09:41;;;;;;;14.30;3.05;;;;;;;10.72;81.44;101507.63;5048839;28;20093;-80
2021/11/10 03:12:10;;;;;;;10.68;3.25;;;;;;;10.67;81.42;101499.50;5020292;28;20611;-81
2021/11/10 03:14:39;;;;;;;11.45;2.88;;;;;;;10.62;81.51;101502.41;5031781;28;20464;-80
2021/11/10 03:17:10;;;;;;;19.58;3.75;;;;;;;10.58;81.68;101501.44;5050451;28;20072;-80
2021/11/10 03:19:37;;;;;;;7.68;3.08;;;;;;;10.55;81.56;101491.84;5051380;28;20076;-80
2021/11/10 03:22:06;;;;;;;8.00;2.42;;;;;;;10.54;81.63;101503.25;5051895;28;20087;-80
2021/11/10 03:24:34;;;;;;;8.43;2.75;;;;;;;10.55;81.56;101497.38;5037042;28;20546;-79
2021/11/10 03:27:02;;;;;;;9.63;2.50;;;;;;;10.53;81.39;101504.38;5049959;28;20403;-80
2021/11/10 03:29:29;;;;;;;13.25;4.20;;;;;;;10.49;81.33;101504.22;5034952;28;20036;-80
2021/11/10 03:31:56;;;;;;;10.10;2.55;;;;;;;10.47;81.55;101505.69;5017195;28;20090;-80
2021/11/10 03:34:23;;;;;;;9.27;2.45;;;;;;;10.45;81.54;101519.84;5034629;28;20049;-80
2021/11/10 03:36:50;;;;;;;11.55;2.85;;;;;;;10.45;81.63;101519.84;5032423;28;20125;-80
2021/11/10 03:39:17;;;;;;;12.18;2.78;;;;;;;10.45;81.79;101519.03;5049142;28;20074;-81
2021/11/10 03:41:45;;;;;;;8.80;2.97;;;;;;;10.43;81.78;101524.09;5052710;28;20083;-80
2021/11/10 03:44:12;;;;;;;8.38;2.92;;;;;;;10.42;81.88;101537.13;5017886;28;20083;-80
2021/11/10 03:46:42;;;;;;;12.50;3.00;;;;;;;10.42;81.80;101531.56;5035545;28;20127;-80
2021/11/10 03:49:10;;;;;;;13.18;3.38;;;;;;;10.40;81.75;101523.56;5050167;28;20104;-81
2021/11/10 03:51:38;;;;;;;8.75;2.45;;;;;;;10.39;81.83;101527.50;5051617;28;20099;-80
2021/11/10 03:54:05;;;;;;;13.00;4.63;;;;;;;10.37;81.84;101523.44;5053329;28;20079;-81
2021/11/10 03:56:33;;;;;;;6.63;2.47;;;;;;;10.35;81.72;101532.03;5051219;28;20041;-81
2021/11/10 03:58:59;;;;;;;8.13;2.75;;;;;;;10.34;81.71;101530.44;5059351;28;20121;-80
2021/11/10 04:01:27;;;;;;;11.00;3.72;;;;;;;10.33;81.94;101537.09;5050224;28;20060;-80
2021/11/10 04:03:54;;;;;;;11.15;4.05;;;;;;;10.30;81.74;101532.22;5053929;28;20045;-80
2021/11/10 04:06:21;;;;;;;14.65;3.33;;;;;;;10.28;82.20;101539.19;5028966;28;20044;-80
2021/11/10 04:08:48;;;;;;;10.20;3.45;;;;;;;10.21;82.08;101539.69;5053898;28;20110;-80
2021/11/10 04:11:14;;;;;;;11.27;3.30;;;;;;;10.17;82.14;101535.94;5033432;28;20043;-80
2021/11/10 04:13:41;;;;;;;10.95;3.17;;;;;;;10.11;82.27;101545.47;5054728;28;20106;-80
2021/11/10 04:16:08;;;;;;;12.98;3.35;;;;;;;10.09;82.29;101545.00;5035209;28;20049;-80
2021/11/10 04:18:35;;;;;;;8.75;3.03;;;;;;;10.05;82.65;101537.69;5053017;28;20043;-80
2021/11/10 04:21:04;;;;;;;7.70;3.22;;;;;;;10.05;82.70;101549.56;5049575;28;20051;-80
2021/11/10 04:23:33;;;;;;;6.25;3.08;;;;;;;10.07;82.71;101552.81;5053531;28;20075;-80
2021/11/10 04:26:03;;;;;;;9.57;4.35;;;;;;;10.05;82.66;101560.63;5051479;28;20060;-80
2021/11/10 04:28:31;;;;;;;9.80;4.07;;;;;;;10.01;82.45;101559.63;5053975;28;20072;-80
2021/11/10 04:30:58;;;;;;;12.27;3.58;;;;;;;9.96;82.39;101561.72;5034489;28;20123;-80
2021/11/10 04:33:27;;;;;;;11.65;3.05;;;;;;;9.90;82.56;101569.34;5050504;28;20044;-80
2021/11/10 04:35:54;;;;;;;9.98;3.85;;;;;;;9.84;82.88;101565.13;5054019;28;20555;-80
2021/11/10 04:38:22;;;;;;;12.48;3.80;;;;;;;9.82;82.78;101575.69;5050218;28;20045;-80
2021/11/10 04:40:49;;;;;;;16.27;5.00;;;;;;;9.79;83.09;101563.28;5051969;28;20150;-79
2021/11/10 04:43:16;;;;;;;11.63;3.97;;;;;;;9.78;82.96;101566.41;5034074;28;20571;-80
2021/11/10 04:45:45;;;;;;;14.35;4.25;;;;;;;9.75;82.94;101567.84;5051712;28;20155;-81
2021/11/10 04:48:12;;;;;;;7.55;3.53;;;;;;;9.73;83.04;101566.53;5053130;28;20049;-80
2021/11/10 04:50:43;;;;;;;10.00;3.60;;;;;;;9.69;83.30;101565.53;5056785;28;20450;-80
2021/11/10 04:53:12;;;;;;;9.93;3.35;;;;;;;9.65;83.08;101568.16;5054276;28;20087;-80
2021/11/10 04:55:40;;;;;;;15.73;4.35;;;;;;;9.56;83.28;101571.97;5057889;28;20148;-80
2021/11/10 04:58:10;;;;;;;9.77;4.07;;;;;;;9.54;83.26;101577.03;5057015;28;20447;-80
2021/11/10 05:00:37;;;;;;;10.02;4.00;;;;;;;9.51;83.46;101574.88;5037071;28;20068;-80
2021/11/10 05:03:03;;;;;;;14.40;4.82;;;;;;;9.53;83.48;101575.41;5038314;28;20043;-80
2021/11/10 05:05:30;;;;;;;12.27;4.47;;;;;;;9.53;83.36;101575.41;5038779;28;20037;-81
2021/11/10 05:07:57;;;;;;;13.20;4.38;;;;;;;9.54;83.47;101571.50;5056174;28;20074;-80
2021/11/10 05:10:24;;;;;;;11.45;3.55;;;;;;;9.55;83.04;101578.66;5022604;28;20461;-80
2021/11/10 05:12:51;;;;;;;11.90;4.70;;;;;;;9.51;83.15;101585.94;5034424;28;20514;-80
2021/11/10 05:15:18;;;;;;;7.65;3.88;;;;;;;9.42;83.18;101590.63;5052744;28;20134;-80
2021/11/10 05:17:45;;;;;;;15.15;4.20;;;;;;;9.39;83.38;101589.31;5037492;28;20508;-80
2021/11/10 05:20:11;;;;;;;12.77;4.28;;;;;;;9.34;83.38;101583.94;5057542;28;20078;-80
2021/11/10 05:22:39;;;;;;;13.20;4.50;;;;;;;9.30;83.74;101595.91;5036793;28;20155;-80
2021/11/10 05:25:08;;;;;;;13.30;4.90;;;;;;;9.28;83.80;101592.66;5056020;28;20040;-80
2021/11/10 05:27:36;;;;;;;15.27;4.40;;;;;;;9.24;83.88;101599.97;5055287;28;20110;-80
2021/11/10 05:30:08;;;;;;;16.52;5.00;;;;;;;9.24;83.75;101602.72;5035417;28;20054;-80
2021/11/10 05:32:35;;;;;;;13.48;4.53;;;;;;;9.23;83.83;101595.56;5052059;28;20135;-80
2021/11/10 05:35:03;;;;;;;15.93;5.18;;;;;;;9.24;84.01;101599.97;5033228;28;20052;-80
2021/11/10 05:37:30;;;;;;;15.90;5.00;;;;;;;9.22;84.11;101597.50;5037013;28;20041;-80
2021/11/10 05:39:57;;;;;;;13.35;4.78;;;;;;;9.24;84.21;101588.91;5052876;28;20060;-80
2021/11/10 05:42:25;;;;;;;19.58;5.25;;;;;;;9.25;84.20;101590.53;5054825;28;20552;-79
2021/11/10 05:44:55;;;;;;;23.42;6.03;;;;;;;9.26;84.08;101592.97;5053731;28;20485;-80
2021/11/10 05:47:22;;;;;;;11.07;4.60;;;;;;;9.30;84.07;101595.91;5055547;28;20068;-80
2021/11/10 05:49:49;;;;;;;15.07;4.03;;;;;;;9.31;84.05;101595.59;5053285;28;20076;-80
2021/11/10 05:52:17;;;;;;;11.75;4.80;;;;;;;9.31;83.99;101584.56;5053958;28;20045;-79
2021/11/10 05:54:44;;;;;;;8.55;4.03;;;;;;;9.29;83.86;101594.28;5056464;28;20044;-80
2021/11/10 05:57:14;;;;;;;8.93;4.57;;;;;;;9.25;83.86;101596.03;5053091;28;20044;-80
2021/11/10 05:59:41;;;;;;;18.73;6.15;;;;;;;9.22;84.07;101596.66;5050125;28;20507;-79
2021/11/10 06:02:09;;;;;;;19.15;4.75;;;;;;;9.21;83.97;101592.28;5037405;28;20079;-80
2021/11/10 06:04:36;;;;;;;15.13;4.93;;;;;;;9.19;83.81;101598.94;5053520;28;20036;-79
2021/11/10 06:07:05;;;;;;;13.30;5.07;;;;;;;9.12;83.99;101597.75;5055374;28;20064;-80
2021/11/10 06:09:32;;;;;;;15.57;4.68;;;;;;;9.07;84.25;101603.41;5054124;28;20095;-80
2021/11/10 06:11:59;;;;;;;14.65;5.65;;;;;;;9.06;84.39;101605.34;5038488;28;20403;-80
2021/11/10 06:14:26;;;;;;;17.17;5.05;;;;;;;9.06;84.51;101599.00;5055579;28;20052;-80
2021/11/10 06:16:53;;;;;;;16.25;5.03;;;;;;;9.06;84.47;101599.00;5034321;28;20049;-80
2021/11/10 06:19:22;;;;;;;13.85;6.35;;;;;;;9.05;84.17;101592.66;5033642;28;20439;-80
2021/11/10 06:21:49;;;;;;;19.70;6.43;;;;;;;9.01;84.10;101602.72;5051508;28;20090;-80
2021/11/10 06:24:20;;;;;;;13.32;4.97;;;;;;;8.98;84.49;101608.03;5053593;28;20045;-80
2021/11/10 06:26:48;;;;;;;17.33;5.30;;;;;;;8.91;84.74;101604.91;5034294;28;20461;-80
2021/11/10 06:29:16;;;;;;;17.10;5.72;;;;;;;8.89;84.90;101610.75;5052839;28;20044;-80
2021/11/10 06:31:43;;;;;;;17.10;6.78;;;;;;;8.86;84.97;101608.63;5052388;28;20041;-80
2021/11/10 06:34:10;;;;;;;14.65;5.55;;;;;;;8.84;85.10;101616.38;5053840;28;20049;-80
2021/11/10 06:36:37;;;;;;;19.02;5.10;;;;;;;8.86;85.41;101616.09;5050660;28;20061;-80
2021/11/10 06:39:04;;;;;;;15.13;5.30;;;;;;;8.86;85.57;101621.59;5036932;28;20552;-80
2021/11/10 06:41:31;;;;;;;17.23;5.18;;;;;;;8.87;85.73;101629.56;5054848;28;20036;-79
2021/11/10 06:43:58;;;;;;;16.17;4.97;;;;;;;8.92;85.83;101628.66;5053731;28;20135;-80
2021/11/10 06:46:25;;;;;;;16.25;5.70;;;;;;;8.93;85.88;101620.03;5018656;28;20147;-79
2021/11/10 06:48:52;;;;;;;19.10;5.03;;;;;;;8.97;85.86;101626.59;5053305;28;20881;-81
2021/11/10 06:51:19;;;;;;;18.20;5.13;;;;;;;8.99;85.84;101640.88;5054525;28;20048;-80
2021/11/10 06:53:46;;;;;;;19.40;6.60;;;;;;;9.01;85.96;101640.56;5052813;28;20048;-80
2021/11/10 06:56:13;;;;;;;16.50;5.75;;;;;;;9.02;86.03;101634.75;5036115;28;20064;-80
2021/11/10 06:58:40;;;;;;;15.88;5.53;;;;;;;9.07;85.90;101640.13;5053379;28;23031;-80
2021/11/10 07:01:07;;;;;;;21.40;6.15;;;;;;;9.11;85.74;101640.31;5050867;28;20068;-80
2021/11/10 07:03:35;;;;;;;17.17;7.43;;;;;;;9.12;85.74;101641.97;5050017;28;20094;-79
2021/11/10 07:06:02;;;;;;;20.20;6.95;;;;;;;9.16;85.69;101649.28;5052378;28;20148;-82
2021/11/10 07:08:29;;;;;;;25.95;7.32;;;;;;;9.19;85.79;101645.09;5042411;28;20639;-80
2021/11/10 07:10:56;;;;;;;20.23;5.88;;;;;;;9.24;86.02;101650.47;5054725;28;20049;-78
2021/11/10 07:13:23;;;;;;;11.07;5.78;;;;;;;9.29;85.92;101649.56;5042718;28;20049;-77
2021/11/10 07:15:50;;;;;;;21.98;5.97;;;;;;;9.31;85.93;101644.53;5032853;28;20504;-77
2021/11/10 07:18:18;;;;;;;14.77;5.25;;;;;;;9.35;85.94;101645.50;5040553;28;20076;-78
2021/11/10 07:20:44;;;;;;;11.07;5.60;;;;;;;9.37;86.21;101643.28;5045687;28;20086;-78
2021/11/10 07:23:11;;;;;;;15.95;4.85;;;;;;;9.39;86.06;101646.53;5039935;28;20472;-77
2021/11/10 07:25:38;;;;;;;12.93;4.97;;;;;;;9.40;86.22;101653.72;5051013;28;20048;-77
2021/11/10 07:28:05;;;;;;;17.85;5.10;;;;;;;9.41;86.25;101660.84;5057087;28;20132;-78
2021/11/10 07:30:31;;;;;;;13.30;5.10;;;;;;;9.40;85.92;101648.97;5055725;28;20122;-78
2021/11/10 07:32:58;;;;;;;18.10;6.13;;;;;;;9.43;86.34;101653.06;5059049;28;20143;-77
2021/11/10 07:35:27;;;;;;;17.15;5.60;;;;;;;9.44;86.49;101660.22;5055433;28;20037;-78
2021/11/10 07:37:55;;;;;;;22.17;7.03;;;;;;;9.46;86.54;101663.47;5040099;28;20063;-78
2021/11/10 07:40:24;;;;;;;11.05;4.90;;;;;;;9.47;86.70;101670.66;5030902;28;20048;-78
2021/11/10 07:42:51;;;;;;;15.95;5.22;;;;;;;9.47;86.51;101670.66;5055248;28;20071;-78
2021/11/10 07:45:21;;;;;;;15.90;5.82;;;;;;;9.50;86.46;101670.03;5034438;28;20048;-77
2021/11/10 07:47:51;;;;;;;18.70;6.88;;;;;;;9.52;86.71;101673.28;5056558;28;20044;-77
2021/11/10 07:50:21;;;;;;;18.88;6.20;;;;;;;9.50;86.58;101662.56;5056722;28;20090;-78
2021/11/10 07:52:49;;;;;;;14.18;6.18;;;;;;;9.52;86.86;101673.28;5056589;28;20124;-78
2021/11/10 07:55:17;;;;;;;17.50;6.00;;;;;;;9.55;86.46;101675.41;5054786;28;20040;-78
2021/11/10 07:57:44;;;;;;;20.60;7.22;;;;;;;9.56;86.75;101671.50;5036105;28;20631;-77
2021/11/10 08:00:31;;;;;;;17.35;6.90;;;;;;;9.56;87.09;101677.03;5053587;28;20142;-78
2021/11/10 08:02:58;;;;;;;13.40;5.03;;;;;;;9.58;87.14;101666.50;5052546;28;20040;-78
2021/11/10 08:05:26;;;;;;;22.80;6.15;;;;;;;9.64;87.07;101681.81;5053244;28;20067;-78
2021/11/10 08:07:53;;;;;;;13.02;6.78;;;;;;;9.66;87.18;101683.13;5036426;28;20054;-78
2021/11/10 08:10:37;;;;;;;21.65;7.20;;;;;;;9.69;86.83;101682.50;5052104;28;20044;-78
2021/11/10 08:13:04;;;;;;;14.25;6.40;;;;;;;9.72;87.10;101686.56;5051318;28;20040;-78
2021/11/10 08:15:31;;;;;;;13.68;5.97;;;;;;;9.76;87.08;101687.59;5052141;28;20412;-78
2021/11/10 08:17:58;;;;;;;16.08;6.88;;;;;;;9.77;87.07;101689.19;5048245;28;20435;-78
2021/11/10 08:20:25;;;;;;;14.05;4.90;;;;;;;9.78;87.20;101688.06;5028169;28;20072;-78
2021/11/10 08:22:51;;;;;;;16.98;5.85;;;;;;;9.82;87.07;101695.41;5044132;28;20532;-78
2021/11/10 08:25:20;;;;;;;15.05;4.97;;;;;;;9.87;87.14;101693.66;5031240;28;20200;-78
2021/11/10 08:27:47;;;;;;;12.77;4.60;;;;;;;9.91;86.72;101700.19;5035331;28;20048;-77
2021/11/10 08:30:18;;;;;;;16.95;5.40;;;;;;;9.91;87.01;101706.53;5051035;28;20044;-77
2021/11/10 08:32:46;;;;;;;20.85;7.25;;;;;;;9.94;87.38;101700.38;5056478;28;20060;-77
2021/11/10 08:35:13;;;;;;;15.98;5.03;;;;;;;10.00;87.05;101718.47;5058595;28;20048;-78
2021/11/10 08:37:41;;;;;;;11.02;4.15;;;;;;;10.01;87.03;101711.78;5056981;28;20075;-78
2021/11/10 08:40:10;;;;;;;11.38;4.10;;;;;;;10.05;87.05;101714.75;5036031;28;20073;-77
2021/11/10 08:42:37;;;;;;;21.42;4.72;;;;;;;10.04;86.83;101707.56;5051422;28;20072;-78
2021/11/10 08:45:09;;;;;;;12.40;3.92;;;;;;;10.04;87.16;101702.84;5053782;28;20079;-78
2021/11/10 08:47:37;;;;;;;16.00;4.05;;;;;;;10.07;86.97;101699.44;5056633;28;20538;-77
2021/11/10 08:50:07;;;;;;;12.35;4.60;;;;;;;10.11;86.84;101700.44;5039669;28;20489;-77
2021/11/10 08:52:36;;;;;;;18.27;4.53;;;;;;;10.13;86.87;101703.75;5041016;28;20116;-77
2021/11/10 08:55:05;;;;;;;18.17;4.47;;;;;;;10.16;86.90;101696.75;5056896;28;20074;-78
2021/11/10 08:57:34;;;;;;;16.85;5.13;;;;;;;10.18;86.88;101703.59;5049417;28;20091;-77
2021/11/10 09:00:03;;;;;;;15.25;4.53;;;;;;;10.20;86.98;101700.50;5051127;28;20045;-78
2021/11/10 09:02:29;;;;;;;13.63;4.50;;;;;;;10.27;87.05;101711.94;5052125;28;20535;-78
2021/11/10 09:04:56;;;;;;;11.07;4.05;;;;;;;10.32;86.95;101715.41;5035777;28;20044;-77
2021/11/10 09:07:23;;;;;;;17.95;4.40;;;;;;;10.39;86.97;101714.91;5060188;28;20044;-78
2021/11/10 09:09:50;;;;;;;14.07;5.53;;;;;;;10.44;86.78;101717.53;5037012;28;20044;-77
2021/11/10 09:12:17;;;;;;;15.90;4.85;;;;;;;10.48;86.51;101723.25;5055456;28;20069;-78
2021/11/10 09:14:44;;;;;;;15.40;5.80;;;;;;;10.49;86.61;101724.88;5059084;28;20049;-78
2021/11/10 09:17:12;;;;;;;21.95;5.65;;;;;;;10.52;86.66;101729.78;5061479;28;20044;-78
2021/11/10 09:19:39;;;;;;;18.55;6.63;;;;;;;10.52;86.47;101736.13;5039629;28;20045;-81
2021/11/10 09:22:07;;;;;;;11.63;5.03;;;;;;;10.55;86.60;101734.66;5056359;28;20037;-77
2021/11/10 09:24:35;;;;;;;12.93;5.28;;;;;;;10.53;86.39;101737.78;5039102;28;20135;-77
2021/11/10 09:27:03;;;;;;;18.25;6.43;;;;;;;10.54;86.24;101738.59;5038842;28;20041;-78
2021/11/10 09:29:31;;;;;;;12.82;5.90;;;;;;;10.53;86.13;101743.31;5054718;28;20080;-78
2021/11/10 09:31:59;;;;;;;13.50;5.75;;;;;;;10.50;86.25;101745.91;5057046;28;20044;-77
2021/11/10 09:34:26;;;;;;;24.88;7.43;;;;;;;10.46;85.87;101744.91;5059356;28;20045;-78
2021/11/10 09:36:53;;;;;;;17.98;7.05;;;;;;;10.41;85.88;101745.84;5062709;28;20132;-78
2021/11/10 09:39:22;;;;;;;23.92;7.85;;;;;;;10.35;85.92;101756.25;5063975;28;20068;-78
2021/11/10 09:41:52;;;;;;;17.35;7.40;;;;;;;10.33;85.63;101752.16;5025441;28;20955;-78
2021/11/10 09:44:22;;;;;;;13.65;6.47;;;;;;;10.29;85.79;101757.56;5059271;28;20049;-78
2021/11/10 09:46:50;;;;;;;20.00;6.95;;;;;;;10.27;85.92;101747.94;5061598;28;20037;-77
2021/11/10 09:49:18;;;;;;;19.95;6.82;;;;;;;10.26;86.12;101744.34;5062336;28;20446;-77
2021/11/10 09:51:47;;;;;;;15.85;6.13;;;;;;;10.30;86.16;101750.84;5060193;28;20119;-77
2021/11/10 09:54:16;;;;;;;16.73;6.57;;;;;;;10.32;86.17;101748.63;5037302;28;20045;-77
2021/11/10 09:56:45;;;;;;;14.73;5.80;;;;;;;10.38;85.99;101754.78;5058651;28;20072;-77
2021/11/10 09:59:16;;;;;;;20.70;6.82;;;;;;;10.38;86.06;101757.56;5042675;28;20408;-77
2021/11/10 10:01:43;;;;;;;18.70;6.82;;;;;;;10.39;86.19;101748.13;5061386;28;20439;-77
2021/11/10 10:04:12;;;;;;;13.63;5.53;;;;;;;10.41;85.98;101748.63;5045282;28;20090;-78
2021/11/10 10:06:40;;;;;;;20.25;7.00;;;;;;;10.43;85.83;101756.63;5042897;28;20280;-77
2021/11/10 10:09:08;;;;;;;19.85;6.53;;;;;;;10.41;85.72;101759.69;5060510;28;20041;-77
2021/11/10 10:11:36;;;;;;;17.40;6.82;;;;;;;10.34;85.60;101762.94;5062329;28;20083;-77
2021/11/10 10:14:02;;;;;;;20.10;6.55;;;;;;;10.33;86.07;101764.06;5062615;28;20454;-77
2021/11/10 10:16:35;;;;;;;15.13;5.78;;;;;;;10.33;85.80;101761.28;5062920;28;20044;-78
2021/11/10 10:19:10;;;;;;;18.10;7.50;;;;;;;10.34;85.89;101757.41;5061118;28;20039;-78
2021/11/10 10:21:43;;;;;;;15.13;7.95;;;;;;;10.39;85.96;101765.56;5040306;28;20036;-77
2021/11/10 10:24:15;;;;;;;15.65;5.57;;;;;;;10.36;86.01;101759.84;5042662;28;20049;-77
2021/11/10 10:26:42;;;;;;;17.27;6.03;;;;;;;10.38;85.71;101774.16;5043460;28;20114;-79
2021/11/10 10:29:12;;;;;;;15.18;5.45;;;;;;;10.43;86.00;101767.69;5064590;28;20090;-83
2021/11/10 10:31:41;;;;;;;15.27;5.65;;;;;;;10.48;85.85;101762.84;5033096;28;20114;-82
2021/11/10 10:34:12;;;;;;;21.42;6.45;;;;;;;10.55;85.70;101774.25;5055806;28;20041;-80
2021/11/10 10:36:42;;;;;;;17.75;7.25;;;;;;;10.58;85.64;101767.25;5034967;28;20041;-80
2021/11/10 10:39:16;;;;;;;14.52;6.65;;;;;;;10.61;85.53;101767.44;5036393;28;20043;-80
2021/11/10 10:41:47;;;;;;;12.70;7.07;;;;;;;10.65;85.59;101768.44;5051467;28;20040;-81
2021/11/10 10:44:17;;;;;;;13.38;6.05;;;;;;;10.72;85.42;101770.75;5056550;28;20094;-81
2021/11/10 10:46:54;;;;;;;20.33;6.40;;;;;;;10.78;85.08;101769.44;5058665;28;20098;-81
2021/11/10 10:49:30;;;;;;;41.45;7.75;;;;;;;10.81;85.17;101766.03;5061776;28;20043;-80
2021/11/10 10:52:17;;;;;;;10.45;5.20;;;;;;;10.86;84.80;101763.09;5036404;28;20044;-82
2021/11/10 10:54:46;;;;;;;14.38;5.30;;;;;;;10.85;84.40;101765.09;5039411;28;20040;-81
2021/11/10 10:57:21;;;;;;;17.95;5.20;;;;;;;10.86;84.43;101763.09;5056791;28;20468;-81
2021/11/10 11:00:06;;;;;;;15.90;5.80;;;;;;;10.83;83.95;101769.28;5034375;28;20492;-84
2021/11/10 11:02:34;;;;;;;15.68;5.30;;;;;;;10.81;84.08;101760.47;5059707;28;20064;-82
2021/11/10 11:05:01;;;;;;;8.77;4.70;;;;;;;10.87;84.17;101764.75;5046265;28;20209;-77
2021/11/10 11:07:31;;;;;;;12.82;5.15;;;;;;;10.91;83.95;101768.50;5037123;28;20036;-78
2021/11/10 11:09:57;;;;;;;11.93;4.53;;;;;;;10.95;83.94;101756.47;5041889;28;20075;-80
2021/11/10 11:15:34;;;;;;;16.65;4.63;;;;;;;11.03;83.44;101757.59;5044664;28;20442;-81
2021/11/10 11:18:01;;;;;;;13.15;6.15;;;;;;;11.10;83.82;101763.47;5061465;28;20052;-78
2021/11/10 11:20:31;;;;;;;13.77;4.45;;;;;;;11.14;83.24;101760.88;5042356;28;20131;-78
2021/11/10 11:22:59;;;;;;;14.43;4.25;;;;;;;11.14;83.00;101749.78;5056325;28;20105;-78
2021/11/10 11:25:34;;;;;;;15.98;5.22;;;;;;;11.15;82.78;101749.47;5025277;28;20098;-78
2021/11/10 11:28:09;;;;;;;17.83;6.05;;;;;;;11.19;82.57;101744.91;5056229;28;20036;-78
2021/11/10 11:30:43;;;;;;;11.40;4.45;;;;;;;11.20;82.28;101746.53;4988063;28;20963;-78